Time;durP1;ratioP1;P1;durP2;ratioP2;P2;SDS_P1;SDS_P2;PMS_P1;PMS_P2;Temp;Humidity;BMP_temperature;BMP_pressure;BME280_temperature;BME280_humidity;BME280_pressure;Samples;Min_cycle;Max_cycle;Signal;HPM_P1;HPM_P2
2021/03/10 00:00:34;;;;;;;20.20;12.57;;;3.80;99.90;;;-141.85;100.00;63675.41;5032144;28;20659;-59
2021/03/10 00:03:01;;;;;;;20.63;12.87;;;3.80;99.90;;;-141.85;100.00;63675.41;5031732;28;20212;-59
2021/03/10 00:05:28;;;;;;;21.17;12.40;;;3.80;99.90;;;-141.85;100.00;63675.41;5031868;28;20209;-61
2021/03/10 00:07:56;;;;;;;17.67;12.63;;;3.80;99.90;;;-141.85;100.00;63675.41;5015795;28;20240;-60
2021/03/10 00:10:23;;;;;;;19.07;12.53;;;3.80;99.90;;;-141.85;100.00;63675.41;5012559;28;20276;-60
2021/03/10 00:12:50;;;;;;;18.80;13.13;;;3.80;99.90;;;-141.85;100.00;63675.41;5012425;28;20202;-60
2021/03/10 00:15:17;;;;;;;19.40;12.70;;;3.80;99.90;;;-141.85;100.00;63675.41;5012543;28;20301;-59
2021/03/10 00:17:45;;;;;;;17.43;12.07;;;3.80;99.90;;;-141.85;100.00;63675.41;5012029;28;20326;-59
2021/03/10 00:20:16;;;;;;;18.27;12.43;;;3.80;99.90;;;-141.85;100.00;63675.41;5012415;28;20209;-60
2021/03/10 00:22:43;;;;;;;17.13;12.30;;;3.70;99.90;;;-141.85;100.00;63675.41;5012360;28;20217;-60
2021/03/10 00:25:12;;;;;;;17.77;12.47;;;3.80;99.90;;;-141.85;100.00;63675.41;5012551;28;20230;-59
2021/03/10 00:27:40;;;;;;;17.27;11.93;;;3.80;99.90;;;-141.85;100.00;63675.41;5011968;28;20615;-61
2021/03/10 00:30:11;;;;;;;17.67;12.50;;;3.80;99.90;;;-141.85;100.00;63675.41;5018609;28;20279;-60
2021/03/10 00:32:39;;;;;;;18.57;13.00;;;3.70;99.90;;;-141.85;100.00;63675.41;5032891;28;20196;-59
2021/03/10 00:35:26;;;;;;;17.70;12.83;;;3.70;99.90;;;-141.85;100.00;63675.41;5034963;28;20712;-60
2021/03/10 00:37:57;;;;;;;16.77;12.23;;;3.80;99.90;;;-141.85;100.00;63675.41;5035650;28;20277;-60
2021/03/10 00:40:25;;;;;;;17.90;12.53;;;3.80;99.90;;;-141.85;100.00;63675.41;5035327;28;20712;-59
2021/03/10 00:42:52;;;;;;;18.13;13.17;;;3.80;99.90;;;-141.85;100.00;63675.41;5035129;28;20203;-60
2021/03/10 00:45:19;;;;;;;20.43;13.73;;;3.80;99.90;;;-141.85;100.00;63675.41;5035242;28;20643;-59
2021/03/10 00:47:46;;;;;;;19.40;13.73;;;3.80;99.90;;;-141.85;100.00;63675.41;5022970;28;20296;-60
2021/03/10 00:50:18;;;;;;;18.33;12.13;;;3.90;99.90;;;-141.85;100.00;63675.41;5015708;28;20219;-60
2021/03/10 00:52:45;;;;;;;18.47;13.63;;;3.80;99.90;;;-141.85;100.00;63675.41;5015624;28;20247;-60
2021/03/10 00:55:13;;;;;;;18.37;12.53;;;3.80;99.90;;;-141.85;100.00;63675.41;5015563;28;20297;-60
2021/03/10 00:57:41;;;;;;;19.47;12.37;;;3.80;99.90;;;-141.85;100.00;63675.41;5014953;28;20689;-59
2021/03/10 01:00:10;;;;;;;19.77;12.57;;;3.80;99.90;;;-141.85;100.00;63675.41;5015013;28;20295;-60
2021/03/10 01:02:37;;;;;;;20.87;12.53;;;3.70;99.90;;;-141.85;100.00;63675.41;5015154;28;20231;-60
2021/03/10 01:05:06;;;;;;;18.60;12.30;;;3.70;99.90;;;-141.85;100.00;63675.41;5015418;28;20238;-59
2021/03/10 01:07:33;;;;;;;18.73;13.07;;;3.70;99.90;;;-141.85;100.00;63675.41;5015129;28;20201;-60
2021/03/10 01:10:01;;;;;;;19.37;12.80;;;3.60;99.90;;;-141.85;100.00;63675.41;5014946;28;20734;-59
2021/03/10 01:12:28;;;;;;;19.20;13.00;;;3.60;99.90;;;-141.85;100.00;63675.41;5015271;28;20234;-61
2021/03/10 01:14:55;;;;;;;17.97;12.13;;;3.50;99.90;;;-141.85;100.00;63675.41;5015027;28;20265;-60
2021/03/10 01:17:23;;;;;;;20.47;12.60;;;3.40;99.90;;;-141.85;100.00;63675.41;5014806;28;20236;-60
2021/03/10 01:19:50;;;;;;;20.23;13.07;;;3.40;99.90;;;-141.85;100.00;63675.41;5015167;28;20209;-60
2021/03/10 01:22:18;;;;;;;18.43;13.03;;;3.40;99.90;;;-141.85;100.00;63675.41;5014883;28;20204;-59
2021/03/10 01:24:45;;;;;;;19.47;13.13;;;3.40;99.90;;;-141.85;100.00;63675.41;5014628;28;20202;-60
2021/03/10 01:27:16;;;;;;;17.17;12.53;;;3.40;99.90;;;-141.85;100.00;63675.41;5014928;28;20227;-59
2021/03/10 01:29:45;;;;;;;19.03;12.27;;;3.40;99.90;;;-141.85;100.00;63675.41;5014635;28;20579;-61
2021/03/10 01:32:13;;;;;;;16.17;11.93;;;3.40;99.90;;;-141.85;100.00;63675.41;5014298;28;20900;-60
2021/03/10 01:34:40;;;;;;;18.87;12.40;;;3.30;99.90;;;-141.85;100.00;63675.41;5014398;28;20754;-60
2021/03/10 01:37:07;;;;;;;18.37;13.33;;;3.30;99.90;;;-141.85;100.00;63675.41;5014410;28;20626;-59
2021/03/10 01:39:35;;;;;;;18.93;13.33;;;3.30;99.90;;;-141.85;100.00;63675.41;5014636;28;20319;-60
2021/03/10 01:42:03;;;;;;;19.40;13.07;;;3.30;99.90;;;-141.85;100.00;63675.41;5014366;28;20757;-59
2021/03/10 01:44:30;;;;;;;19.87;13.53;;;3.20;99.90;;;-141.85;100.00;63675.41;5013415;28;20207;-59
2021/03/10 01:46:58;;;;;;;19.23;13.10;;;3.20;99.90;;;-141.85;100.00;63675.41;5014166;28;20231;-59
2021/03/10 01:49:27;;;;;;;19.83;13.50;;;3.10;99.90;;;-141.85;100.00;63675.41;5014050;28;20298;-59
2021/03/10 01:51:54;;;;;;;19.20;13.13;;;3.20;99.90;;;-141.85;100.00;63675.41;5014258;28;20236;-60
2021/03/10 01:54:21;;;;;;;20.87;14.10;;;3.10;99.90;;;-141.85;100.00;63675.41;5014033;28;20279;-61
2021/03/10 01:56:49;;;;;;;21.13;13.67;;;3.00;99.90;;;-141.85;100.00;63675.41;5013896;28;20255;-60
2021/03/10 01:59:16;;;;;;;18.13;13.90;;;2.90;99.90;;;-141.85;100.00;63675.41;5014087;28;20229;-61
2021/03/10 02:01:43;;;;;;;21.03;14.30;;;2.90;99.90;;;-141.85;100.00;63675.41;5013987;28;20247;-58
2021/03/10 02:04:11;;;;;;;21.50;13.87;;;2.90;99.90;;;-141.85;100.00;63675.41;5014247;28;20261;-59
2021/03/10 02:06:57;;;;;;;21.87;14.17;;;2.90;99.90;;;-141.85;100.00;63675.41;5014031;28;20277;-59
2021/03/10 02:09:38;;;;;;;20.10;14.10;;;2.80;99.90;;;-141.85;100.00;63675.41;5014215;28;20192;-61
2021/03/10 02:12:15;;;;;;;20.80;13.73;;;2.80;99.90;;;-141.85;100.00;63675.41;5013861;28;20218;-59
2021/03/10 02:14:51;;;;;;;23.90;14.93;;;2.70;99.90;;;-141.85;100.00;63675.41;5013714;28;20623;-60
2021/03/10 02:17:25;;;;;;;22.47;14.33;;;2.70;99.90;;;-141.85;100.00;63675.41;5013823;28;20195;-60
2021/03/10 02:20:40;;;;;;;21.87;14.70;;;2.60;99.90;;;-141.85;100.00;63675.41;5013941;28;20188;-59
2021/03/10 02:23:47;;;;;;;23.00;14.43;;;2.60;99.90;;;-141.85;100.00;63675.41;4952970;29;20239;-59
2021/03/10 02:26:32;;;;;;;23.93;15.13;;;2.50;99.90;;;-141.85;100.00;63675.41;4952896;29;20269;-60
2021/03/10 02:29:04;;;;;;;22.70;15.40;;;2.40;99.90;;;-141.85;100.00;63675.41;5004863;28;20204;-60
2021/03/10 02:31:38;;;;;;;23.57;15.43;;;2.30;99.90;;;-141.85;100.00;63675.41;5013562;28;20211;-60
2021/03/10 02:34:07;;;;;;;23.07;15.13;;;2.30;99.90;;;-141.85;100.00;63675.41;5013752;28;20191;-60
2021/03/10 02:36:48;;;;;;;23.93;15.27;;;2.20;99.90;;;-141.85;100.00;63675.41;5013756;28;20183;-61
2021/03/10 02:39:18;;;;;;;24.77;15.73;;;2.10;99.90;;;-141.85;100.00;63675.41;5014183;28;20223;-60
2021/03/10 02:41:47;;;;;;;23.27;16.10;;;2.10;99.90;;;-141.85;100.00;63675.41;5015962;28;20611;-60
2021/03/10 02:44:18;;;;;;;26.00;17.07;;;2.10;99.90;;;-141.85;100.00;63675.41;5015835;28;20224;-60
2021/03/10 02:46:46;;;;;;;26.13;16.73;;;2.00;99.90;;;-141.85;100.00;63675.41;5013131;28;20237;-60
2021/03/10 02:49:15;;;;;;;27.17;17.57;;;2.00;99.90;;;-141.85;100.00;63675.41;5013555;28;20612;-60
2021/03/10 02:51:45;;;;;;;26.53;17.40;;;2.00;99.90;;;-141.85;100.00;63675.41;5013318;28;20595;-59
2021/03/10 02:54:16;;;;;;;29.40;17.67;;;2.00;99.90;;;-141.85;100.00;63675.41;5013409;28;20250;-60
2021/03/10 02:56:44;;;;;;;24.67;15.87;;;2.10;99.90;;;-141.85;100.00;63675.41;5013271;28;20193;-60
2021/03/10 02:59:13;;;;;;;28.97;17.37;;;2.10;99.90;;;-141.85;100.00;63675.41;5012822;28;20234;-59
2021/03/10 03:01:41;;;;;;;28.30;17.73;;;2.10;99.90;;;-141.85;100.00;63675.41;5012700;28;20663;-60
2021/03/10 03:04:08;;;;;;;26.23;17.70;;;2.10;99.90;;;-141.85;100.00;63675.41;5013255;28;20616;-60
2021/03/10 03:06:35;;;;;;;24.47;16.47;;;2.30;99.90;;;-141.85;100.00;63675.41;5012825;28;20237;-59
2021/03/10 03:09:03;;;;;;;27.73;17.90;;;2.40;99.90;;;-141.85;100.00;63675.41;5013127;28;20230;-59
2021/03/10 03:11:31;;;;;;;27.70;16.87;;;2.50;99.90;;;-141.85;100.00;63675.41;5012850;28;20203;-59
2021/03/10 03:14:04;;;;;;;26.17;16.90;;;2.50;99.90;;;-141.85;100.00;63675.41;5012734;28;20243;-60
2021/03/10 03:16:32;;;;;;;26.00;17.53;;;2.60;99.90;;;-141.85;100.00;63675.41;5012951;28;20188;-60
2021/03/10 03:19:02;;;;;;;26.70;17.03;;;2.70;99.90;;;-141.85;100.00;63675.41;5012798;28;20313;-60
2021/03/10 03:21:29;;;;;;;25.97;17.17;;;2.70;99.90;;;-141.85;100.00;63675.41;5012918;28;20211;-59
2021/03/10 03:23:58;;;;;;;25.53;17.90;;;2.70;99.90;;;-141.85;100.00;63675.41;5012841;28;20234;-60
2021/03/10 03:26:25;;;;;;;26.93;17.17;;;2.70;99.90;;;-141.85;100.00;63675.41;5012719;28;20688;-59
2021/03/10 03:28:55;;;;;;;27.17;17.50;;;2.70;99.90;;;-141.85;100.00;63675.41;5012826;28;20293;-60
2021/03/10 03:31:24;;;;;;;26.03;17.67;;;2.60;99.90;;;-141.85;100.00;63675.41;5012737;28;20232;-60
2021/03/10 03:33:51;;;;;;;27.27;18.03;;;2.60;99.90;;;-141.85;100.00;63675.41;5013023;28;20203;-60
2021/03/10 03:36:19;;;;;;;25.77;17.23;;;2.60;99.90;;;-141.85;100.00;63675.41;5012388;28;20288;-60
2021/03/10 03:38:47;;;;;;;25.87;17.40;;;2.50;99.90;;;-141.85;100.00;63675.41;5012825;28;20261;-60
2021/03/10 03:41:14;;;;;;;26.47;17.40;;;2.60;99.90;;;-141.85;100.00;63675.41;5012637;28;20296;-60
2021/03/10 03:43:42;;;;;;;26.83;18.10;;;2.50;99.90;;;-141.85;100.00;63675.41;5012671;28;20204;-59
2021/03/10 03:46:12;;;;;;;27.90;17.47;;;2.50;99.90;;;-141.85;100.00;63675.41;5012195;28;20247;-62
2021/03/10 03:48:39;;;;;;;28.47;18.27;;;2.40;99.90;;;-141.85;100.00;63675.41;5012909;28;20307;-60
2021/03/10 03:51:24;;;;;;;31.43;20.13;;;2.50;99.90;;;-141.85;100.00;63675.41;5012323;28;20214;-60
2021/03/10 03:53:57;;;;;;;30.40;20.03;;;2.40;99.90;;;-141.85;100.00;63675.41;5012759;28;20293;-59
2021/03/10 03:56:24;;;;;;;34.43;22.23;;;2.40;99.90;;;-141.85;100.00;63675.41;5012791;28;20207;-60
2021/03/10 03:58:51;;;;;;;37.77;26.37;;;2.40;99.90;;;-141.85;100.00;63675.41;5012509;28;20226;-60
2021/03/10 04:01:18;;;;;;;50.27;35.67;;;2.40;99.90;;;-141.85;100.00;63675.41;5012074;28;20559;-60
2021/03/10 04:03:47;;;;;;;43.70;31.87;;;2.40;99.90;;;-141.85;100.00;63675.41;5012433;28;20652;-61
2021/03/10 04:06:15;;;;;;;42.33;28.63;;;2.40;99.90;;;-141.85;100.00;63675.41;5012492;28;20611;-60
2021/03/10 04:08:45;;;;;;;37.10;24.67;;;2.40;99.90;;;-141.85;100.00;63675.41;5015016;28;20620;-60
2021/03/10 04:11:15;;;;;;;30.50;20.83;;;2.50;99.90;;;-141.85;100.00;63675.41;5016342;28;20207;-60
2021/03/10 04:13:42;;;;;;;30.70;20.33;;;2.60;99.90;;;-141.85;100.00;63675.41;5016059;28;20188;-59
2021/03/10 04:16:10;;;;;;;30.80;21.30;;;2.80;99.90;;;-141.85;100.00;63675.41;5015474;28;20685;-60
2021/03/10 04:18:38;;;;;;;33.20;21.63;;;2.80;99.90;;;-141.85;100.00;63675.41;5016114;28;20224;-61
2021/03/10 04:21:06;;;;;;;31.00;20.33;;;2.90;99.90;;;-141.85;100.00;63675.41;5016090;28;20307;-61
2021/03/10 04:23:35;;;;;;;27.93;19.07;;;3.00;99.90;;;-141.85;100.00;63675.41;5016043;28;20207;-59
2021/03/10 04:26:03;;;;;;;29.80;20.13;;;3.00;99.90;;;-141.85;100.00;63675.41;5015823;28;20616;-60
2021/03/10 04:28:30;;;;;;;29.00;18.70;;;2.90;99.90;;;-141.85;100.00;63675.41;5015950;28;20234;-60
2021/03/10 04:30:57;;;;;;;32.53;20.10;;;2.90;99.90;;;-141.85;100.00;63675.41;5015402;28;20207;-61
2021/03/10 04:33:23;;;;;;;30.97;19.40;;;3.10;99.90;;;-141.85;100.00;63675.41;5015819;28;20282;-60
2021/03/10 04:35:51;;;;;;;31.50;19.40;;;3.00;99.90;;;-141.85;100.00;63675.41;5015469;28;20840;-60
2021/03/10 04:38:28;;;;;;;30.10;20.17;;;2.90;99.90;;;-141.85;100.00;63675.41;5015560;28;20598;-60
2021/03/10 04:40:55;;;;;;;28.40;18.37;;;3.00;99.90;;;-141.85;100.00;63675.41;5015839;28;20555;-60
2021/03/10 04:43:23;;;;;;;30.00;19.20;;;2.90;99.90;;;-141.85;100.00;63675.41;5015621;28;20288;-60
2021/03/10 04:45:50;;;;;;;33.10;20.30;;;2.90;99.90;;;-141.85;100.00;63675.41;5015216;28;20602;-61
2021/03/10 04:48:17;;;;;;;31.60;19.30;;;3.00;99.90;;;-141.85;100.00;63675.41;5015701;28;20202;-60
2021/03/10 04:50:44;;;;;;;31.40;20.00;;;3.00;99.90;;;-141.85;100.00;63675.41;5015668;28;20203;-61
2021/03/10 04:53:11;;;;;;;30.63;20.63;;;3.00;99.90;;;-141.85;100.00;63675.41;5015547;28;20278;-60
2021/03/10 04:55:39;;;;;;;29.67;19.83;;;2.80;99.90;;;-141.85;100.00;63675.41;5015185;28;20569;-59
2021/03/10 04:58:07;;;;;;;32.57;19.93;;;2.80;99.90;;;-141.85;100.00;63675.41;5015476;28;20557;-61
2021/03/10 05:00:35;;;;;;;28.30;19.57;;;2.80;99.90;;;-141.85;100.00;63675.41;5015260;28;20287;-60
2021/03/10 05:03:03;;;;;;;31.00;19.97;;;2.80;99.90;;;-141.85;100.00;63675.41;5015411;28;20283;-60
2021/03/10 05:05:30;;;;;;;30.73;20.27;;;2.80;99.90;;;-141.85;100.00;63675.41;5015045;28;20675;-61
2021/03/10 05:07:57;;;;;;;28.17;19.47;;;2.90;99.90;;;-141.85;100.00;63675.41;5014940;28;20685;-60
2021/03/10 05:10:24;;;;;;;30.50;20.57;;;3.10;99.90;;;-141.85;100.00;63675.41;5015255;28;20231;-60
2021/03/10 05:12:51;;;;;;;32.53;21.43;;;3.20;99.90;;;-141.85;100.00;63675.41;5014695;28;20241;-60
2021/03/10 05:15:19;;;;;;;31.67;20.23;;;3.20;99.90;;;-141.85;100.00;63675.41;5014964;28;20224;-60
2021/03/10 05:17:46;;;;;;;30.57;19.40;;;3.30;99.90;;;-141.85;100.00;63675.41;5015137;28;20293;-60
2021/03/10 05:20:14;;;;;;;27.30;19.20;;;3.20;99.90;;;-141.85;100.00;63675.41;5014733;28;20231;-60
2021/03/10 05:22:41;;;;;;;31.73;19.67;;;3.10;99.90;;;-141.85;100.00;63675.41;5014509;28;20203;-60
2021/03/10 05:25:11;;;;;;;32.63;21.33;;;3.10;99.90;;;-141.85;100.00;63675.41;5014902;28;20203;-60
2021/03/10 05:27:38;;;;;;;29.37;20.97;;;3.10;99.90;;;-141.85;100.00;63675.41;5014925;28;20240;-60
2021/03/10 05:30:08;;;;;;;32.20;20.37;;;3.20;99.90;;;-141.85;100.00;63675.41;5014436;28;20238;-61
2021/03/10 05:32:37;;;;;;;31.67;20.50;;;3.20;99.90;;;-141.85;100.00;63675.41;5014562;28;20277;-60
2021/03/10 05:35:07;;;;;;;29.93;20.03;;;3.10;99.90;;;-141.85;100.00;63675.41;5014523;28;20231;-61
2021/03/10 05:37:38;;;;;;;30.67;19.90;;;3.10;99.90;;;-141.85;100.00;63675.41;5014462;28;20258;-60
2021/03/10 05:40:07;;;;;;;32.53;20.83;;;3.10;99.90;;;-141.85;100.00;63675.41;5013873;28;20256;-60
2021/03/10 05:42:39;;;;;;;31.13;19.97;;;3.10;99.90;;;-141.85;100.00;63675.41;5013891;28;20629;-60
2021/03/10 05:45:08;;;;;;;28.20;19.60;;;3.10;99.90;;;-141.85;100.00;63675.41;5013935;28;20305;-60
2021/03/10 05:47:36;;;;;;;32.17;20.57;;;3.10;99.90;;;-141.85;100.00;63675.41;5014099;28;20296;-60
2021/03/10 05:50:06;;;;;;;30.87;20.07;;;3.10;99.90;;;-141.85;100.00;63675.41;5013716;28;20665;-62
2021/03/10 05:52:37;;;;;;;27.60;18.63;;;3.00;99.90;;;-141.85;100.00;63675.41;5013821;28;20236;-60
2021/03/10 05:55:07;;;;;;;31.97;19.63;;;2.90;99.90;;;-141.85;100.00;63675.41;5013903;28;20242;-60
2021/03/10 05:57:36;;;;;;;27.87;19.10;;;2.90;99.90;;;-141.85;100.00;63675.41;5013540;28;20191;-60
2021/03/10 06:00:10;;;;;;;29.70;19.43;;;2.90;99.90;;;-141.85;100.00;63675.41;5013334;28;20318;-60
2021/03/10 06:02:37;;;;;;;26.07;17.67;;;3.00;99.90;;;-141.85;100.00;63675.41;5013859;28;20284;-60
2021/03/10 06:05:17;;;;;;;28.90;19.07;;;2.90;99.90;;;-141.85;100.00;63675.41;5014048;28;20198;-61
2021/03/10 06:07:44;;;;;;;28.43;18.40;;;3.00;99.90;;;-141.85;100.00;63675.41;5013824;28;20320;-60
2021/03/10 06:10:13;;;;;;;29.83;18.77;;;3.00;99.90;;;-141.85;100.00;63675.41;5014066;28;20257;-60
2021/03/10 06:12:43;;;;;;;27.90;18.77;;;2.90;99.90;;;-141.85;100.00;63675.41;5013535;28;20208;-60
2021/03/10 06:15:13;;;;;;;26.77;17.80;;;2.90;99.90;;;-141.85;100.00;63675.41;5013235;28;20245;-60
2021/03/10 06:17:42;;;;;;;29.87;18.50;;;3.00;99.90;;;-141.85;100.00;63675.41;5013546;28;20188;-60
2021/03/10 06:20:23;;;;;;;30.37;18.90;;;3.10;99.90;;;-141.85;100.00;63675.41;5013856;28;20238;-60
2021/03/10 06:22:51;;;;;;;28.70;17.90;;;3.20;99.90;;;-141.85;100.00;63675.41;5013515;28;20239;-60
2021/03/10 06:25:18;;;;;;;28.70;17.97;;;3.40;99.90;;;-141.85;100.00;63675.41;5013441;28;20296;-59
2021/03/10 06:27:53;;;;;;;27.90;19.07;;;3.40;99.90;;;-141.85;100.00;63675.41;5013484;28;20578;-60
2021/03/10 06:30:36;;;;;;;27.40;18.83;;;3.40;99.90;;;-141.85;100.00;63675.41;5013077;28;20227;-61
2021/03/10 06:33:05;;;;;;;28.97;18.37;;;3.40;99.90;;;-141.85;100.00;63675.41;5013386;28;20674;-60
2021/03/10 06:35:36;;;;;;;26.43;18.90;;;3.50;99.90;;;-141.85;100.00;63675.41;5013338;28;20296;-59
2021/03/10 06:38:11;;;;;;;28.60;19.57;;;3.50;99.90;;;-141.85;100.00;63675.41;5013354;28;20277;-61
2021/03/10 06:40:54;;;;;;;27.17;18.40;;;3.50;99.90;;;-141.85;100.00;63675.41;5013604;28;20189;-61
2021/03/10 06:43:33;;;;;;;28.60;18.80;;;3.50;99.90;;;-141.85;100.00;63675.41;5012671;28;20256;-60
2021/03/10 06:46:13;;;;;;;28.83;19.03;;;3.60;99.90;;;-141.85;100.00;63675.41;5013528;28;20586;-59
2021/03/10 06:48:53;;;;;;;30.80;18.97;;;3.60;99.90;;;-141.85;100.00;63675.41;5013319;28;20256;-60
2021/03/10 06:51:22;;;;;;;27.80;19.37;;;3.70;99.90;;;-141.85;100.00;63675.41;5014038;28;20225;-60
2021/03/10 06:53:49;;;;;;;28.90;19.43;;;3.70;99.90;;;-141.85;100.00;63675.41;5007633;28;20217;-60
2021/03/10 06:56:21;;;;;;;27.33;18.03;;;3.80;99.90;;;-141.85;100.00;63675.41;4997012;28;20244;-60
2021/03/10 06:59:01;;;;;;;28.07;18.93;;;3.70;99.90;;;-141.85;100.00;63675.41;4998799;28;20252;-60
2021/03/10 07:01:38;;;;;;;28.13;18.97;;;3.80;99.90;;;-141.85;100.00;63675.41;5004671;28;20210;-60
2021/03/10 07:04:07;;;;;;;31.03;19.53;;;4.00;99.90;;;-141.85;100.00;63675.41;5004562;28;20224;-60
2021/03/10 07:06:36;;;;;;;29.07;19.17;;;4.30;99.90;;;-141.85;100.00;63675.41;5002090;28;20661;-59
2021/03/10 07:09:06;;;;;;;29.03;19.07;;;4.50;99.90;;;-141.85;100.00;63675.41;5012932;28;20251;-61
2021/03/10 07:11:36;;;;;;;26.27;19.00;;;4.50;99.90;;;-141.85;100.00;63675.41;5012955;28;20213;-61
2021/03/10 07:14:04;;;;;;;29.33;19.50;;;4.60;99.90;;;-141.85;100.00;63675.41;5012552;28;20588;-59
2021/03/10 07:16:32;;;;;;;30.43;20.10;;;4.60;99.90;;;-141.85;100.00;63675.41;5012733;28;20238;-60
2021/03/10 07:19:01;;;;;;;31.30;20.17;;;4.60;99.90;;;-141.85;100.00;63675.41;5009621;28;20264;-60
2021/03/10 07:21:37;;;;;;;31.60;19.00;;;4.60;99.90;;;-141.85;100.00;63675.41;5001946;28;20636;-61
2021/03/10 07:24:12;;;;;;;30.20;20.03;;;4.70;99.90;;;-141.85;100.00;63675.41;4993151;28;20736;-60
2021/03/10 07:26:43;;;;;;;31.40;20.87;;;4.70;99.90;;;-141.85;100.00;63675.41;5002298;28;20300;-59
2021/03/10 07:29:13;;;;;;;29.37;19.87;;;4.80;99.90;;;-141.85;100.00;63675.41;4994141;28;20313;-61
2021/03/10 07:31:41;;;;;;;30.23;19.77;;;4.90;99.90;;;-141.85;100.00;63675.41;4992930;28;20614;-60
2021/03/10 07:34:09;;;;;;;28.40;19.43;;;4.90;99.90;;;-141.85;100.00;63675.41;4992861;28;20209;-59
2021/03/10 07:36:39;;;;;;;28.43;19.37;;;5.00;99.90;;;-141.85;100.00;63675.41;4992678;28;20230;-61
2021/03/10 07:39:22;;;;;;;29.10;19.17;;;5.10;99.90;;;-141.85;100.00;63675.41;4992638;28;20275;-59
2021/03/10 07:41:49;;;;;;;28.83;19.07;;;5.20;99.90;;;-141.85;100.00;63675.41;4992645;28;20773;-59
2021/03/10 07:44:20;;;;;;;29.13;18.97;;;5.30;99.90;;;-141.85;100.00;63675.41;5004073;28;20213;-60
2021/03/10 07:46:49;;;;;;;28.00;18.83;;;5.50;99.90;;;-141.85;100.00;63675.41;5005559;28;20293;-60
2021/03/10 07:49:23;;;;;;;30.20;20.53;;;5.60;99.90;;;-141.85;100.00;63675.41;4996856;28;20217;-61
2021/03/10 07:52:04;;;;;;;27.00;19.00;;;5.80;99.90;;;-141.85;100.00;63675.41;5003844;28;20209;-60
2021/03/10 07:54:32;;;;;;;29.40;18.87;;;6.00;99.90;;;-141.85;100.00;63675.41;5015508;28;20288;-60
2021/03/10 07:57:11;;;;;;;26.30;18.77;;;6.10;99.90;;;-141.85;100.00;63675.41;5012898;28;20596;-62
2021/03/10 07:59:40;;;;;;;31.93;20.03;;;6.00;99.90;;;-141.85;100.00;63675.41;4995821;28;20309;-63
2021/03/10 08:02:09;;;;;;;29.23;19.90;;;6.10;99.90;;;-141.85;100.00;63675.41;5012665;28;20206;-64
2021/03/10 08:04:39;;;;;;;28.03;20.03;;;6.10;99.90;;;-141.85;100.00;63675.41;5013069;28;20626;-59
2021/03/10 08:07:06;;;;;;;26.47;18.67;;;6.10;99.90;;;-141.85;100.00;63675.41;5012949;28;20658;-61
2021/03/10 08:09:33;;;;;;;31.07;20.87;;;6.10;99.90;;;-141.85;100.00;63675.41;5013109;28;20589;-60
2021/03/10 08:12:07;;;;;;;29.60;20.30;;;6.10;99.90;;;-141.85;100.00;63675.41;5013333;28;20236;-60
2021/03/10 08:14:37;;;;;;;26.43;19.33;;;6.10;99.90;;;-141.85;100.00;63675.41;5013303;28;20226;-60
2021/03/10 08:17:05;;;;;;;28.97;19.30;;;6.20;99.90;;;-141.85;100.00;63675.41;5013622;28;20208;-60
2021/03/10 08:19:33;;;;;;;31.03;20.10;;;6.30;99.90;;;-141.85;100.00;63675.41;5013009;28;20245;-59
2021/03/10 08:22:00;;;;;;;28.73;19.47;;;6.40;99.90;;;-141.85;100.00;63675.41;5012527;28;20217;-61
2021/03/10 08:24:29;;;;;;;28.50;20.37;;;6.40;99.90;;;-141.85;100.00;63675.41;5012866;28;20199;-57
2021/03/10 08:26:59;;;;;;;27.90;19.27;;;6.30;99.90;;;-141.85;100.00;63675.41;5012674;28;20264;-57
2021/03/10 08:29:27;;;;;;;26.33;17.70;;;6.40;99.90;;;-141.85;100.00;63675.41;5012859;28;20243;-59
2021/03/10 08:31:57;;;;;;;28.70;20.03;;;6.50;99.90;;;-141.85;100.00;63675.41;5013026;28;20241;-63
2021/03/10 08:34:36;;;;;;;29.37;19.57;;;6.40;99.90;;;-141.85;100.00;63675.41;5012898;28;20297;-62
2021/03/10 08:37:06;;;;;;;31.47;19.83;;;6.40;99.90;;;-141.85;100.00;63675.41;5011067;28;20193;-62
2021/03/10 08:39:40;;;;;;;30.07;20.07;;;6.60;99.90;;;-141.85;100.00;63675.41;5009555;28;20620;-59
2021/03/10 08:42:07;;;;;;;26.00;18.50;;;6.70;99.90;;;-141.85;100.00;63675.41;5000759;28;20298;-58
2021/03/10 08:44:40;;;;;;;27.30;20.00;;;6.80;99.90;;;-141.85;100.00;63675.41;4991476;28;20238;-65
2021/03/10 08:47:13;;;;;;;29.70;19.77;;;7.10;99.90;;;-141.85;100.00;63675.41;4991835;28;20267;-64
2021/03/10 08:49:44;;;;;;;25.23;18.37;;;6.90;99.90;;;-141.85;100.00;63675.41;4991730;28;20187;-64
2021/03/10 08:52:14;;;;;;;30.40;20.20;;;6.70;99.90;;;-141.85;100.00;63675.41;4991104;28;20632;-65
2021/03/10 08:54:54;;;;;;;31.57;20.50;;;6.80;99.90;;;-141.85;100.00;63675.41;4991061;28;20215;-65
2021/03/10 08:57:24;;;;;;;26.80;19.27;;;7.00;99.90;;;-141.85;100.00;63675.41;4990818;28;20678;-65
2021/03/10 08:59:51;;;;;;;28.97;19.83;;;7.10;99.90;;;-141.85;100.00;63675.41;4991225;28;20224;-68
2021/03/10 09:02:27;;;;;;;25.10;18.37;;;7.20;99.90;;;-141.85;100.00;63675.41;4991058;28;20223;-68
2021/03/10 09:04:55;;;;;;;28.83;18.97;;;7.40;99.90;;;-141.85;100.00;63675.41;4991456;28;20206;-67
2021/03/10 09:07:24;;;;;;;27.23;19.37;;;7.40;99.90;;;-141.85;100.00;63675.41;5002757;28;20596;-68
2021/03/10 09:09:56;;;;;;;27.33;19.63;;;7.40;99.90;;;-141.85;100.00;63675.41;5011027;28;20252;-69
2021/03/10 09:12:24;;;;;;;28.63;19.90;;;7.40;99.90;;;-141.85;100.00;63675.41;5010741;28;20258;-68
2021/03/10 09:14:51;;;;;;;29.13;20.13;;;7.60;99.90;;;-141.85;100.00;63675.41;5009872;28;20302;-62
2021/03/10 09:17:29;;;;;;;29.43;20.30;;;7.70;99.90;;;-141.85;100.00;63675.41;5004495;28;20230;-62
2021/03/10 09:19:59;;;;;;;28.20;19.70;;;7.80;99.90;;;-141.85;100.00;63675.41;4990900;28;20683;-74
2021/03/10 09:22:27;;;;;;;28.93;19.73;;;7.80;99.90;;;-141.85;100.00;63675.41;4991027;28;20226;-66
2021/03/10 09:25:10;;;;;;;29.37;20.53;;;7.90;99.90;;;-141.85;100.00;63675.41;4991264;28;20268;-68
2021/03/10 09:27:38;;;;;;;28.73;19.47;;;7.90;99.90;;;-141.85;100.00;63675.41;4990499;28;20659;-65
2021/03/10 09:30:11;;;;;;;28.03;19.60;;;7.90;99.90;;;-141.85;100.00;63675.41;4991170;28;20539;-61
2021/03/10 09:32:42;;;;;;;26.70;18.77;;;8.00;99.90;;;-141.85;100.00;63675.41;4990880;28;20188;-63
2021/03/10 09:35:18;;;;;;;27.00;19.23;;;8.10;99.90;;;-141.85;100.00;63675.41;4974980;28;570138;-63
2021/03/10 09:37:50;;;;;;;25.90;19.47;;;7.90;99.90;;;-141.85;100.00;63675.41;4999979;28;20204;-63
2021/03/10 09:40:22;;;;;;;26.83;19.33;;;7.90;99.90;;;-141.85;100.00;63675.41;4991430;28;20619;-66
2021/03/10 09:42:59;;;;;;;25.10;18.70;;;7.70;99.90;;;-141.85;100.00;63675.41;4991004;28;20691;-63
2021/03/10 09:45:30;;;;;;;25.70;18.47;;;7.60;99.90;;;-141.85;100.00;63675.41;4991429;28;20207;-68
2021/03/10 09:48:05;;;;;;;28.23;19.53;;;7.50;99.90;;;-141.85;100.00;63675.41;4991574;28;20235;-69
2021/03/10 09:50:39;;;;;;;27.27;19.37;;;7.50;99.90;;;-141.85;100.00;63675.41;4991744;28;20241;-69
2021/03/10 09:53:15;;;;;;;29.60;18.53;;;7.20;99.90;;;-141.85;100.00;63675.41;4991502;28;20195;-69
2021/03/10 09:55:46;;;;;;;26.77;19.27;;;7.20;99.90;;;-141.85;100.00;63675.41;4990892;28;20186;-70
2021/03/10 09:58:16;;;;;;;28.70;18.80;;;7.00;99.90;;;-141.85;100.00;63675.41;4991043;28;20188;-65
2021/03/10 10:00:44;;;;;;;28.10;19.23;;;6.80;99.90;;;-141.85;100.00;63675.41;4991008;28;20278;-63
2021/03/10 10:03:12;;;;;;;28.27;19.47;;;6.60;99.90;;;-141.85;100.00;63675.41;4991045;28;20667;-65
2021/03/10 10:05:41;;;;;;;26.27;19.10;;;6.60;99.90;;;-141.85;100.00;63675.41;4990484;28;20214;-64